sensor_id;sensor_type;location;lat;lon;timestamp;P1;durP1;ratioP1;P2;durP2;ratioP2
15504;SDS011;7854;52.184;5.942;2023-06-05T00:03:04;6;;;5;;
15504;SDS011;7854;52.184;5.942;2023-06-05T00:03:21;11;;;4;;
15504;SDS011;7854;52.184;5.942;2023-06-05T00:05:36;3;;;3;;
15504;SDS011;7854;52.184;5.942;2023-06-05T00:07:51;5;;;4;;
15504;SDS011;7854;52.184;5.942;2023-06-05T00:10:06;6;;;5;;
15504;SDS011;7854;52.184;5.942;2023-06-05T00:12:19;5;;;4;;
15504;SDS011;7854;52.184;5.942;2023-06-05T00:14:34;4;;;4;;
15504;SDS011;7854;52.184;5.942;2023-06-05T00:16:48;5;;;4;;
15504;SDS011;7854;52.184;5.942;2023-06-05T00:19:03;5;;;4;;
15504;SDS011;7854;52.184;5.942;2023-06-05T00:21:17;4;;;4;;
15504;SDS011;7854;52.184;5.942;2023-06-05T00:23:31;5;;;4;;
15504;SDS011;7854;52.184;5.942;2023-06-05T00:28:00;14;;;6;;
15504;SDS011;7854;52.184;5.942;2023-06-05T00:30:15;5;;;4;;
15504;SDS011;7854;52.184;5.942;2023-06-05T00:32:29;6;;;5;;
15504;SDS011;7854;52.184;5.942;2023-06-05T00:34:44;5;;;4;;
15504;SDS011;7854;52.184;5.942;2023-06-05T00:36:58;6;;;6;;
15504;SDS011;7854;52.184;5.942;2023-06-05T00:39:13;5;;;5;;
15504;SDS011;7854;52.184;5.942;2023-06-05T00:41:27;6;;;5;;
15504;SDS011;7854;52.184;5.942;2023-06-05T00:43:42;6;;;5;;
15504;SDS011;7854;52.184;5.942;2023-06-05T00:45:57;5;;;5;;
15504;SDS011;7854;52.184;5.942;2023-06-05T00:48:10;5;;;4;;
15504;SDS011;7854;52.184;5.942;2023-06-05T00:50:25;10;;;6;;
15504;SDS011;7854;52.184;5.942;2023-06-05T00:52:40;6;;;5;;
15504;SDS011;7854;52.184;5.942;2023-06-05T00:54:54;7;;;5;;
15504;SDS011;7854;52.184;5.942;2023-06-05T00:57:08;5;;;5;;
15504;SDS011;7854;52.184;5.942;2023-06-05T00:59:22;5;;;5;;
15504;SDS011;7854;52.184;5.942;2023-06-05T01:01:37;6;;;5;;
15504;SDS011;7854;52.184;5.942;2023-06-05T01:03:51;6;;;6;;
15504;SDS011;7854;52.184;5.942;2023-06-05T01:06:06;6;;;5;;
15504;SDS011;7854;52.184;5.942;2023-06-05T01:08:20;6;;;6;;
15504;SDS011;7854;52.184;5.942;2023-06-05T01:10:35;6;;;6;;
15504;SDS011;7854;52.184;5.942;2023-06-05T01:12:50;7;;;6;;
15504;SDS011;7854;52.184;5.942;2023-06-05T01:15:04;6;;;5;;
15504;SDS011;7854;52.184;5.942;2023-06-05T01:17:18;6;;;6;;
15504;SDS011;7854;52.184;5.942;2023-06-05T01:19:32;7;;;5;;
15504;SDS011;7854;52.184;5.942;2023-06-05T01:21:46;7;;;7;;
15504;SDS011;7854;52.184;5.942;2023-06-05T01:24:00;7;;;6;;
15504;SDS011;7854;52.184;5.942;2023-06-05T01:26:17;6;;;6;;
15504;SDS011;7854;52.184;5.942;2023-06-05T01:28:29;7;;;6;;
15504;SDS011;7854;52.184;5.942;2023-06-05T01:30:45;9;;;7;;
15504;SDS011;7854;52.184;5.942;2023-06-05T01:32:59;6;;;6;;
15504;SDS011;7854;52.184;5.942;2023-06-05T01:35:11;7;;;6;;
15504;SDS011;7854;52.184;5.942;2023-06-05T01:37:25;6;;;6;;
15504;SDS011;7854;52.184;5.942;2023-06-05T01:39:40;7;;;7;;
15504;SDS011;7854;52.184;5.942;2023-06-05T01:41:54;7;;;7;;
15504;SDS011;7854;52.184;5.942;2023-06-05T01:44:08;7;;;7;;
15504;SDS011;7854;52.184;5.942;2023-06-05T01:46:23;7;;;7;;
15504;SDS011;7854;52.184;5.942;2023-06-05T01:48:37;8;;;7;;
15504;SDS011;7854;52.184;5.942;2023-06-05T01:50:54;7;;;7;;
15504;SDS011;7854;52.184;5.942;2023-06-05T01:53:06;8;;;7;;
15504;SDS011;7854;52.184;5.942;2023-06-05T01:55:21;5;;;5;;
15504;SDS011;7854;52.184;5.942;2023-06-05T01:57:35;7;;;7;;
15504;SDS011;7854;52.184;5.942;2023-06-05T01:59:49;6;;;6;;
15504;SDS011;7854;52.184;5.942;2023-06-05T02:02:04;6;;;6;;
15504;SDS011;7854;52.184;5.942;2023-06-05T02:04:18;8;;;7;;
15504;SDS011;7854;52.184;5.942;2023-06-05T02:06:33;11;;;7;;
15504;SDS011;7854;52.184;5.942;2023-06-05T02:08:48;9;;;8;;
15504;SDS011;7854;52.184;5.942;2023-06-05T02:11:02;7;;;7;;
15504;SDS011;7854;52.184;5.942;2023-06-05T02:13:16;8;;;7;;
15504;SDS011;7854;52.184;5.942;2023-06-05T02:15:31;9;;;7;;
15504;SDS011;7854;52.184;5.942;2023-06-05T02:17:45;8;;;7;;
15504;SDS011;7854;52.184;5.942;2023-06-05T02:19:59;9;;;8;;
15504;SDS011;7854;52.184;5.942;2023-06-05T02:22:13;9;;;8;;
15504;SDS011;7854;52.184;5.942;2023-06-05T02:24:27;8;;;8;;
15504;SDS011;7854;52.184;5.942;2023-06-05T02:26:42;8;;;7;;
15504;SDS011;7854;52.184;5.942;2023-06-05T02:28:57;8;;;8;;
15504;SDS011;7854;52.184;5.942;2023-06-05T02:31:11;9;;;8;;
15504;SDS011;7854;52.184;5.942;2023-06-05T02:33:25;10;;;7;;
15504;SDS011;7854;52.184;5.942;2023-06-05T02:35:40;9;;;8;;
15504;SDS011;7854;52.184;5.942;2023-06-05T02:37:54;10;;;8;;
15504;SDS011;7854;52.184;5.942;2023-06-05T02:40:08;9;;;9;;
15504;SDS011;7854;52.184;5.942;2023-06-05T02:42:22;9;;;8;;
15504;SDS011;7854;52.184;5.942;2023-06-05T02:44:37;10;;;8;;
15504;SDS011;7854;52.184;5.942;2023-06-05T02:46:51;11;;;9;;
15504;SDS011;7854;52.184;5.942;2023-06-05T02:49:06;8;;;7;;
15504;SDS011;7854;52.184;5.942;2023-06-05T02:51:20;8;;;7;;
15504;SDS011;7854;52.184;5.942;2023-06-05T02:53:34;7;;;7;;
15504;SDS011;7854;52.184;5.942;2023-06-05T02:55:49;10;;;9;;
15504;SDS011;7854;52.184;5.942;2023-06-05T02:58:03;9;;;9;;
15504;SDS011;7854;52.184;5.942;2023-06-05T03:00:18;11;;;9;;
15504;SDS011;7854;52.184;5.942;2023-06-05T03:02:32;9;;;9;;
15504;SDS011;7854;52.184;5.942;2023-06-05T03:04:47;10;;;9;;
15504;SDS011;7854;52.184;5.942;2023-06-05T03:07:01;8;;;8;;
15504;SDS011;7854;52.184;5.942;2023-06-05T03:09:16;9;;;9;;
15504;SDS011;7854;52.184;5.942;2023-06-05T03:11:30;9;;;8;;
15504;SDS011;7854;52.184;5.942;2023-06-05T03:13:45;10;;;9;;
15504;SDS011;7854;52.184;5.942;2023-06-05T03:15:59;9;;;8;;
15504;SDS011;7854;52.184;5.942;2023-06-05T03:18:13;10;;;9;;
15504;SDS011;7854;52.184;5.942;2023-06-05T03:20:28;10;;;9;;
15504;SDS011;7854;52.184;5.942;2023-06-05T03:22:42;10;;;9;;
15504;SDS011;7854;52.184;5.942;2023-06-05T03:24:57;10;;;9;;
15504;SDS011;7854;52.184;5.942;2023-06-05T03:27:11;12;;;9;;
15504;SDS011;7854;52.184;5.942;2023-06-05T03:29:26;11;;;9;;
15504;SDS011;7854;52.184;5.942;2023-06-05T03:31:40;10;;;9;;
15504;SDS011;7854;52.184;5.942;2023-06-05T03:33:55;11;;;10;;
15504;SDS011;7854;52.184;5.942;2023-06-05T03:36:09;12;;;10;;
15504;SDS011;7854;52.184;5.942;2023-06-05T03:38:23;10;;;9;;
15504;SDS011;7854;52.184;5.942;2023-06-05T03:40:38;16;;;8;;
15504;SDS011;7854;52.184;5.942;2023-06-05T03:42:52;12;;;11;;
15504;SDS011;7854;52.184;5.942;2023-06-05T03:45:07;13;;;8;;
15504;SDS011;7854;52.184;5.942;2023-06-05T03:47:21;11;;;10;;
15504;SDS011;7854;52.184;5.942;2023-06-05T03:49:36;11;;;9;;
15504;SDS011;7854;52.184;5.942;2023-06-05T03:51:50;11;;;10;;
15504;SDS011;7854;52.184;5.942;2023-06-05T03:54:05;12;;;11;;
15504;SDS011;7854;52.184;5.942;2023-06-05T03:56:19;11;;;10;;
15504;SDS011;7854;52.184;5.942;2023-06-05T03:58:33;10;;;9;;
15504;SDS011;7854;52.184;5.942;2023-06-05T04:00:47;9;;;9;;
15504;SDS011;7854;52.184;5.942;2023-06-05T04:03:02;16;;;10;;
15504;SDS011;7854;52.184;5.942;2023-06-05T04:05:17;12;;;11;;
15504;SDS011;7854;52.184;5.942;2023-06-05T04:07:31;10;;;10;;
15504;SDS011;7854;52.184;5.942;2023-06-05T04:09:45;10;;;9;;
15504;SDS011;7854;52.184;5.942;2023-06-05T04:12:00;9;;;9;;
15504;SDS011;7854;52.184;5.942;2023-06-05T04:14:15;9;;;9;;
15504;SDS011;7854;52.184;5.942;2023-06-05T04:16:29;13;;;10;;
15504;SDS011;7854;52.184;5.942;2023-06-05T04:18:43;10;;;9;;
15504;SDS011;7854;52.184;5.942;2023-06-05T04:20:58;9;;;9;;
15504;SDS011;7854;52.184;5.942;2023-06-05T04:23:12;8;;;7;;
15504;SDS011;7854;52.184;5.942;2023-06-05T04:25:26;10;;;9;;
15504;SDS011;7854;52.184;5.942;2023-06-05T04:27:42;11;;;9;;
15504;SDS011;7854;52.184;5.942;2023-06-05T04:29:55;10;;;8;;
15504;SDS011;7854;52.184;5.942;2023-06-05T04:32:10;11;;;7;;
15504;SDS011;7854;52.184;5.942;2023-06-05T04:34:25;10;;;8;;
15504;SDS011;7854;52.184;5.942;2023-06-05T04:36:39;11;;;8;;
15504;SDS011;7854;52.184;5.942;2023-06-05T04:38:53;11;;;8;;
15504;SDS011;7854;52.184;5.942;2023-06-05T04:41:08;9;;;8;;
15504;SDS011;7854;52.184;5.942;2023-06-05T04:43:22;9;;;8;;
15504;SDS011;7854;52.184;5.942;2023-06-05T04:45:37;8;;;7;;
15504;SDS011;7854;52.184;5.942;2023-06-05T04:47:51;9;;;7;;
15504;SDS011;7854;52.184;5.942;2023-06-05T04:50:06;9;;;8;;
15504;SDS011;7854;52.184;5.942;2023-06-05T04:52:20;8;;;8;;
15504;SDS011;7854;52.184;5.942;2023-06-05T04:54:34;9;;;7;;
15504;SDS011;7854;52.184;5.942;2023-06-05T04:56:49;9;;;7;;
15504;SDS011;7854;52.184;5.942;2023-06-05T04:59:03;10;;;9;;
15504;SDS011;7854;52.184;5.942;2023-06-05T05:01:18;10;;;7;;
15504;SDS011;7854;52.184;5.942;2023-06-05T05:03:32;8;;;7;;
15504;SDS011;7854;52.184;5.942;2023-06-05T05:05:45;9;;;8;;
15504;SDS011;7854;52.184;5.942;2023-06-05T05:08:00;8;;;8;;
15504;SDS011;7854;52.184;5.942;2023-06-05T05:10:14;17;;;8;;
15504;SDS011;7854;52.184;5.942;2023-06-05T05:12:29;8;;;7;;
15504;SDS011;7854;52.184;5.942;2023-06-05T05:14:44;14;;;8;;
15504;SDS011;7854;52.184;5.942;2023-06-05T05:16:58;9;;;9;;
15504;SDS011;7854;52.184;5.942;2023-06-05T05:19:12;7;;;7;;
15504;SDS011;7854;52.184;5.942;2023-06-05T05:21:27;9;;;6;;
15504;SDS011;7854;52.184;5.942;2023-06-05T05:23:41;8;;;8;;
15504;SDS011;7854;52.184;5.942;2023-06-05T05:25:56;10;;;7;;
15504;SDS011;7854;52.184;5.942;2023-06-05T05:28:10;8;;;8;;
15504;SDS011;7854;52.184;5.942;2023-06-05T05:30:25;8;;;8;;
15504;SDS011;7854;52.184;5.942;2023-06-05T05:32:39;15;;;6;;
15504;SDS011;7854;52.184;5.942;2023-06-05T05:37:08;6;;;6;;
15504;SDS011;7854;52.184;5.942;2023-06-05T05:39:22;6;;;5;;
15504;SDS011;7854;52.184;5.942;2023-06-05T05:41:37;6;;;6;;
15504;SDS011;7854;52.184;5.942;2023-06-05T05:43:51;5;;;5;;
15504;SDS011;7854;52.184;5.942;2023-06-05T05:46:06;6;;;5;;
15504;SDS011;7854;52.184;5.942;2023-06-05T05:48:20;6;;;6;;
15504;SDS011;7854;52.184;5.942;2023-06-05T05:50:34;9;;;6;;
15504;SDS011;7854;52.184;5.942;2023-06-05T05:52:49;6;;;6;;
15504;SDS011;7854;52.184;5.942;2023-06-05T05:55:04;6;;;6;;
15504;SDS011;7854;52.184;5.942;2023-06-05T05:57:18;6;;;6;;
15504;SDS011;7854;52.184;5.942;2023-06-05T05:59:32;6;;;5;;
15504;SDS011;7854;52.184;5.942;2023-06-05T06:01:47;7;;;5;;
15504;SDS011;7854;52.184;5.942;2023-06-05T06:04:01;5;;;5;;
15504;SDS011;7854;52.184;5.942;2023-06-05T06:06:15;4;;;4;;
15504;SDS011;7854;52.184;5.942;2023-06-05T06:08:30;6;;;4;;
15504;SDS011;7854;52.184;5.942;2023-06-05T06:10:44;5;;;4;;
15504;SDS011;7854;52.184;5.942;2023-06-05T06:12:59;5;;;5;;
15504;SDS011;7854;52.184;5.942;2023-06-05T06:17:28;12;;;5;;
15504;SDS011;7854;52.184;5.942;2023-06-05T06:19:43;7;;;5;;
15504;SDS011;7854;52.184;5.942;2023-06-05T06:21:57;4;;;4;;
15504;SDS011;7854;52.184;5.942;2023-06-05T06:24:11;13;;;5;;
15504;SDS011;7854;52.184;5.942;2023-06-05T06:26:26;4;;;4;;
15504;SDS011;7854;52.184;5.942;2023-06-05T06:28:40;5;;;3;;
15504;SDS011;7854;52.184;5.942;2023-06-05T06:30:55;4;;;4;;
15504;SDS011;7854;52.184;5.942;2023-06-05T06:33:09;4;;;4;;
15504;SDS011;7854;52.184;5.942;2023-06-05T06:35:24;9;;;4;;
15504;SDS011;7854;52.184;5.942;2023-06-05T06:37:38;3;;;3;;
15504;SDS011;7854;52.184;5.942;2023-06-05T06:42:07;4;;;3;;
15504;SDS011;7854;52.184;5.942;2023-06-05T06:44:21;4;;;3;;
15504;SDS011;7854;52.184;5.942;2023-06-05T06:48:50;4;;;3;;
15504;SDS011;7854;52.184;5.942;2023-06-05T06:51:04;3;;;3;;
15504;SDS011;7854;52.184;5.942;2023-06-05T06:53:24;3;;;3;;
15504;SDS011;7854;52.184;5.942;2023-06-05T06:55:45;4;;;3;;
15504;SDS011;7854;52.184;5.942;2023-06-05T06:58:05;6;;;3;;
15504;SDS011;7854;52.184;5.942;2023-06-05T07:00:26;9;;;4;;
15504;SDS011;7854;52.184;5.942;2023-06-05T07:02:46;4;;;3;;
15504;SDS011;7854;52.184;5.942;2023-06-05T07:05:00;3;;;2;;
15504;SDS011;7854;52.184;5.942;2023-06-05T07:07:15;3;;;3;;
15504;SDS011;7854;52.184;5.942;2023-06-05T07:09:29;3;;;3;;
15504;SDS011;7854;52.184;5.942;2023-06-05T07:11:43;6;;;4;;
15504;SDS011;7854;52.184;5.942;2023-06-05T07:13:58;5;;;5;;
15504;SDS011;7854;52.184;5.942;2023-06-05T07:16:12;3;;;3;;
15504;SDS011;7854;52.184;5.942;2023-06-05T07:18:27;5;;;5;;
15504;SDS011;7854;52.184;5.942;2023-06-05T07:20:41;9;;;4;;
15504;SDS011;7854;52.184;5.942;2023-06-05T07:22:56;9;;;4;;
15504;SDS011;7854;52.184;5.942;2023-06-05T07:25:10;3;;;3;;
15504;SDS011;7854;52.184;5.942;2023-06-05T07:27:25;5;;;3;;
15504;SDS011;7854;52.184;5.942;2023-06-05T07:29:39;5;;;5;;
15504;SDS011;7854;52.184;5.942;2023-06-05T07:31:53;7;;;4;;
15504;SDS011;7854;52.184;5.942;2023-06-05T07:34:08;4;;;4;;
15504;SDS011;7854;52.184;5.942;2023-06-05T07:36:22;4;;;4;;
15504;SDS011;7854;52.184;5.942;2023-06-05T07:38:36;5;;;4;;
15504;SDS011;7854;52.184;5.942;2023-06-05T07:40:51;5;;;5;;
15504;SDS011;7854;52.184;5.942;2023-06-05T07:43:06;5;;;4;;
15504;SDS011;7854;52.184;5.942;2023-06-05T07:45:20;11;;;4;;
15504;SDS011;7854;52.184;5.942;2023-06-05T07:47:33;4;;;4;;
15504;SDS011;7854;52.184;5.942;2023-06-05T07:49:56;4;;;4;;
15504;SDS011;7854;52.184;5.942;2023-06-05T07:52:01;4;;;4;;
15504;SDS011;7854;52.184;5.942;2023-06-05T07:54:16;5;;;4;;
15504;SDS011;7854;52.184;5.942;2023-06-05T07:56:30;5;;;5;;
15504;SDS011;7854;52.184;5.942;2023-06-05T07:58:45;4;;;4;;
15504;SDS011;7854;52.184;5.942;2023-06-05T08:00:59;4;;;4;;
15504;SDS011;7854;52.184;5.942;2023-06-05T08:03:13;6;;;5;;
15504;SDS011;7854;52.184;5.942;2023-06-05T08:05:28;3;;;3;;
15504;SDS011;7854;52.184;5.942;2023-06-05T08:07:43;4;;;4;;
15504;SDS011;7854;52.184;5.942;2023-06-05T08:09:57;5;;;5;;
15504;SDS011;7854;52.184;5.942;2023-06-05T08:12:11;4;;;4;;
15504;SDS011;7854;52.184;5.942;2023-06-05T08:14:26;4;;;4;;
15504;SDS011;7854;52.184;5.942;2023-06-05T08:16:40;4;;;4;;
15504;SDS011;7854;52.184;5.942;2023-06-05T08:18:55;5;;;5;;
15504;SDS011;7854;52.184;5.942;2023-06-05T08:21:09;4;;;4;;
15504;SDS011;7854;52.184;5.942;2023-06-05T08:23:23;5;;;4;;
15504;SDS011;7854;52.184;5.942;2023-06-05T08:25:38;5;;;5;;
15504;SDS011;7854;52.184;5.942;2023-06-05T08:27:53;4;;;3;;
15504;SDS011;7854;52.184;5.942;2023-06-05T08:30:07;4;;;3;;
15504;SDS011;7854;52.184;5.942;2023-06-05T08:32:21;4;;;4;;
15504;SDS011;7854;52.184;5.942;2023-06-05T08:34:35;4;;;4;;
15504;SDS011;7854;52.184;5.942;2023-06-05T08:36:49;4;;;4;;
15504;SDS011;7854;52.184;5.942;2023-06-05T08:39:04;3;;;3;;
15504;SDS011;7854;52.184;5.942;2023-06-05T08:41:18;4;;;4;;
15504;SDS011;7854;52.184;5.942;2023-06-05T08:43:35;4;;;4;;
15504;SDS011;7854;52.184;5.942;2023-06-05T08:45:48;4;;;3;;
15504;SDS011;7854;52.184;5.942;2023-06-05T08:48:01;4;;;4;;
15504;SDS011;7854;52.184;5.942;2023-06-05T08:50:16;4;;;4;;
15504;SDS011;7854;52.184;5.942;2023-06-05T08:52:32;3;;;3;;
15504;SDS011;7854;52.184;5.942;2023-06-05T08:54:45;4;;;4;;
15504;SDS011;7854;52.184;5.942;2023-06-05T08:56:59;4;;;3;;
15504;SDS011;7854;52.184;5.942;2023-06-05T08:59:14;4;;;4;;
15504;SDS011;7854;52.184;5.942;2023-06-05T09:01:29;4;;;4;;
15504;SDS011;7854;52.184;5.942;2023-06-05T09:03:42;4;;;4;;
15504;SDS011;7854;52.184;5.942;2023-06-05T09:05:57;3;;;3;;
15504;SDS011;7854;52.184;5.942;2023-06-05T09:08:12;5;;;4;;
15504;SDS011;7854;52.184;5.942;2023-06-05T09:10:27;4;;;4;;
15504;SDS011;7854;52.184;5.942;2023-06-05T09:12:52;4;;;4;;
15504;SDS011;7854;52.184;5.942;2023-06-05T09:14:55;4;;;3;;
15504;SDS011;7854;52.184;5.942;2023-06-05T09:17:12;4;;;3;;
15504;SDS011;7854;52.184;5.942;2023-06-05T09:19:24;5;;;4;;
15504;SDS011;7854;52.184;5.942;2023-06-05T09:21:38;4;;;3;;
15504;SDS011;7854;52.184;5.942;2023-06-05T09:23:52;3;;;3;;
15504;SDS011;7854;52.184;5.942;2023-06-05T09:26:07;4;;;4;;
15504;SDS011;7854;52.184;5.942;2023-06-05T09:28:21;4;;;4;;
15504;SDS011;7854;52.184;5.942;2023-06-05T09:30:42;4;;;4;;
15504;SDS011;7854;52.184;5.942;2023-06-05T09:32:51;5;;;4;;
15504;SDS011;7854;52.184;5.942;2023-06-05T09:35:06;6;;;4;;
15504;SDS011;7854;52.184;5.942;2023-06-05T09:37:20;4;;;4;;
15504;SDS011;7854;52.184;5.942;2023-06-05T09:39:34;4;;;4;;
15504;SDS011;7854;52.184;5.942;2023-06-05T09:41:48;7;;;4;;
15504;SDS011;7854;52.184;5.942;2023-06-05T09:44:04;4;;;3;;
15504;SDS011;7854;52.184;5.942;2023-06-05T09:46:17;4;;;4;;
15504;SDS011;7854;52.184;5.942;2023-06-05T09:48:32;3;;;3;;
15504;SDS011;7854;52.184;5.942;2023-06-05T09:50:46;3;;;3;;
15504;SDS011;7854;52.184;5.942;2023-06-05T09:53:01;4;;;4;;
15504;SDS011;7854;52.184;5.942;2023-06-05T09:57:33;3;;;3;;
15504;SDS011;7854;52.184;5.942;2023-06-05T09:59:49;4;;;3;;
15504;SDS011;7854;52.184;5.942;2023-06-05T10:00:23;3;;;3;;
15504;SDS011;7854;52.184;5.942;2023-06-05T10:02:03;4;;;4;;
15504;SDS011;7854;52.184;5.942;2023-06-05T10:04:13;4;;;4;;
15504;SDS011;7854;52.184;5.942;2023-06-05T10:06:28;3;;;3;;
15504;SDS011;7854;52.184;5.942;2023-06-05T10:08:41;10;;;6;;
15504;SDS011;7854;52.184;5.942;2023-06-05T10:10:56;4;;;3;;
15504;SDS011;7854;52.184;5.942;2023-06-05T10:13:09;3;;;3;;
15504;SDS011;7854;52.184;5.942;2023-06-05T10:15:24;4;;;3;;
15504;SDS011;7854;52.184;5.942;2023-06-05T10:17:39;3;;;3;;
15504;SDS011;7854;52.184;5.942;2023-06-05T10:19:53;3;;;3;;
15504;SDS011;7854;52.184;5.942;2023-06-05T10:22:09;4;;;3;;
15504;SDS011;7854;52.184;5.942;2023-06-05T10:24:23;9;;;3;;
15504;SDS011;7854;52.184;5.942;2023-06-05T10:26:49;3;;;3;;
15504;SDS011;7854;52.184;5.942;2023-06-05T10:28:52;5;;;3;;
15504;SDS011;7854;52.184;5.942;2023-06-05T10:31:10;4;;;3;;
15504;SDS011;7854;52.184;5.942;2023-06-05T10:33:22;3;;;2;;
15504;SDS011;7854;52.184;5.942;2023-06-05T10:37:53;3;;;3;;
15504;SDS011;7854;52.184;5.942;2023-06-05T10:40:03;3;;;3;;
15504;SDS011;7854;52.184;5.942;2023-06-05T10:42:25;3;;;3;;
15504;SDS011;7854;52.184;5.942;2023-06-05T10:44:39;3;;;3;;
15504;SDS011;7854;52.184;5.942;2023-06-05T10:46:46;3;;;2;;
15504;SDS011;7854;52.184;5.942;2023-06-05T10:49:08;3;;;3;;
15504;SDS011;7854;52.184;5.942;2023-06-05T10:51:31;6;;;3;;
15504;SDS011;7854;52.184;5.942;2023-06-05T10:53:45;2;;;2;;
15504;SDS011;7854;52.184;5.942;2023-06-05T10:55:44;3;;;3;;
15504;SDS011;7854;52.184;5.942;2023-06-05T10:58:07;3;;;3;;
15504;SDS011;7854;52.184;5.942;2023-06-05T11:00:13;4;;;3;;
15504;SDS011;7854;52.184;5.942;2023-06-05T11:02:27;4;;;3;;
15504;SDS011;7854;52.184;5.942;2023-06-05T11:05:02;3;;;3;;
15504;SDS011;7854;52.184;5.942;2023-06-05T11:07:13;3;;;3;;
15504;SDS011;7854;52.184;5.942;2023-06-05T11:09:12;7;;;4;;
15504;SDS011;7854;52.184;5.942;2023-06-05T11:11:25;4;;;3;;
15504;SDS011;7854;52.184;5.942;2023-06-05T11:13:55;3;;;3;;
15504;SDS011;7854;52.184;5.942;2023-06-05T11:15:54;4;;;3;;
15504;SDS011;7854;52.184;5.942;2023-06-05T11:20:48;3;;;2;;
15504;SDS011;7854;52.184;5.942;2023-06-05T11:23:06;3;;;3;;
15504;SDS011;7854;52.184;5.942;2023-06-05T11:27:06;4;;;4;;
15504;SDS011;7854;52.184;5.942;2023-06-05T11:29:21;3;;;3;;
15504;SDS011;7854;52.184;5.942;2023-06-05T11:31:35;4;;;3;;
15504;SDS011;7854;52.184;5.942;2023-06-05T11:33:49;3;;;3;;
15504;SDS011;7854;52.184;5.942;2023-06-05T11:36:05;3;;;2;;
15504;SDS011;7854;52.184;5.942;2023-06-05T11:38:19;3;;;3;;
15504;SDS011;7854;52.184;5.942;2023-06-05T11:40:33;3;;;2;;
15504;SDS011;7854;52.184;5.942;2023-06-05T11:42:47;3;;;3;;
15504;SDS011;7854;52.184;5.942;2023-06-05T11:45:02;8;;;3;;
15504;SDS011;7854;52.184;5.942;2023-06-05T11:47:24;4;;;3;;
15504;SDS011;7854;52.184;5.942;2023-06-05T11:49:30;4;;;4;;
15504;SDS011;7854;52.184;5.942;2023-06-05T11:51:45;4;;;3;;
15504;SDS011;7854;52.184;5.942;2023-06-05T11:53:59;3;;;3;;
15504;SDS011;7854;52.184;5.942;2023-06-05T11:56:14;3;;;3;;
15504;SDS011;7854;52.184;5.942;2023-06-05T11:58:29;4;;;3;;
15504;SDS011;7854;52.184;5.942;2023-06-05T12:00:43;3;;;3;;
15504;SDS011;7854;52.184;5.942;2023-06-05T12:02:57;3;;;3;;
15504;SDS011;7854;52.184;5.942;2023-06-05T12:05:12;3;;;3;;
15504;SDS011;7854;52.184;5.942;2023-06-05T12:07:27;3;;;2;;
15504;SDS011;7854;52.184;5.942;2023-06-05T12:09:50;3;;;3;;
15504;SDS011;7854;52.184;5.942;2023-06-05T12:12:04;3;;;3;;
15504;SDS011;7854;52.184;5.942;2023-06-05T12:14:10;4;;;3;;
15504;SDS011;7854;52.184;5.942;2023-06-05T12:16:31;4;;;4;;
15504;SDS011;7854;52.184;5.942;2023-06-05T12:18:38;3;;;3;;
15504;SDS011;7854;52.184;5.942;2023-06-05T12:20:53;4;;;4;;
15504;SDS011;7854;52.184;5.942;2023-06-05T12:23:07;4;;;3;;
15504;SDS011;7854;52.184;5.942;2023-06-05T12:25:22;3;;;3;;
15504;SDS011;7854;52.184;5.942;2023-06-05T12:27:36;3;;;3;;
15504;SDS011;7854;52.184;5.942;2023-06-05T12:29:52;3;;;3;;
15504;SDS011;7854;52.184;5.942;2023-06-05T12:32:18;3;;;3;;
15504;SDS011;7854;52.184;5.942;2023-06-05T12:34:20;4;;;3;;
15504;SDS011;7854;52.184;5.942;2023-06-05T12:36:37;3;;;3;;
15504;SDS011;7854;52.184;5.942;2023-06-05T12:38:47;3;;;3;;
15504;SDS011;7854;52.184;5.942;2023-06-05T12:41:02;3;;;3;;
15504;SDS011;7854;52.184;5.942;2023-06-05T12:43:17;2;;;2;;
15504;SDS011;7854;52.184;5.942;2023-06-05T12:45:31;3;;;3;;
15504;SDS011;7854;52.184;5.942;2023-06-05T12:47:45;3;;;2;;
15504;SDS011;7854;52.184;5.942;2023-06-05T12:50:00;3;;;3;;
15504;SDS011;7854;52.184;5.942;2023-06-05T12:52:14;2;;;2;;
15504;SDS011;7854;52.184;5.942;2023-06-05T12:54:28;5;;;3;;
15504;SDS011;7854;52.184;5.942;2023-06-05T12:58:57;2;;;2;;
15504;SDS011;7854;52.184;5.942;2023-06-05T13:01:12;2;;;2;;
15504;SDS011;7854;52.184;5.942;2023-06-05T13:03:26;9;;;2;;
15504;SDS011;7854;52.184;5.942;2023-06-05T13:05:41;2;;;2;;
15504;SDS011;7854;52.184;5.942;2023-06-05T13:07:55;2;;;2;;
15504;SDS011;7854;52.184;5.942;2023-06-05T13:10:10;3;;;2;;
15504;SDS011;7854;52.184;5.942;2023-06-05T13:12:24;3;;;3;;
15504;SDS011;7854;52.184;5.942;2023-06-05T13:14:38;3;;;2;;
15504;SDS011;7854;52.184;5.942;2023-06-05T13:16:53;3;;;3;;
15504;SDS011;7854;52.184;5.942;2023-06-05T13:19:08;2;;;2;;
15504;SDS011;7854;52.184;5.942;2023-06-05T13:21:22;2;;;2;;
15504;SDS011;7854;52.184;5.942;2023-06-05T13:23:36;4;;;2;;
15504;SDS011;7854;52.184;5.942;2023-06-05T13:25:51;3;;;3;;
15504;SDS011;7854;52.184;5.942;2023-06-05T13:28:04;5;;;3;;
15504;SDS011;7854;52.184;5.942;2023-06-05T13:30:18;4;;;3;;
15504;SDS011;7854;52.184;5.942;2023-06-05T13:32:32;2;;;2;;
15504;SDS011;7854;52.184;5.942;2023-06-05T13:34:47;2;;;2;;
15504;SDS011;7854;52.184;5.942;2023-06-05T13:37:01;3;;;3;;
15504;SDS011;7854;52.184;5.942;2023-06-05T13:39:16;2;;;2;;
15504;SDS011;7854;52.184;5.942;2023-06-05T13:41:30;3;;;3;;
15504;SDS011;7854;52.184;5.942;2023-06-05T13:43:44;5;;;2;;
15504;SDS011;7854;52.184;5.942;2023-06-05T13:45:59;3;;;2;;
15504;SDS011;7854;52.184;5.942;2023-06-05T13:48:13;2;;;2;;
15504;SDS011;7854;52.184;5.942;2023-06-05T13:50:28;3;;;2;;
15504;SDS011;7854;52.184;5.942;2023-06-05T13:52:42;2;;;1;;
15504;SDS011;7854;52.184;5.942;2023-06-05T13:54:57;2;;;1;;
15504;SDS011;7854;52.184;5.942;2023-06-05T13:57:11;1;;;1;;
15504;SDS011;7854;52.184;5.942;2023-06-05T13:59:26;3;;;2;;
15504;SDS011;7854;52.184;5.942;2023-06-05T14:01:40;2;;;2;;
15504;SDS011;7854;52.184;5.942;2023-06-05T14:03:55;2;;;2;;
15504;SDS011;7854;52.184;5.942;2023-06-05T14:06:09;1;;;1;;
15504;SDS011;7854;52.184;5.942;2023-06-05T14:08:23;2;;;2;;
15504;SDS011;7854;52.184;5.942;2023-06-05T14:10:38;2;;;2;;
15504;SDS011;7854;52.184;5.942;2023-06-05T14:12:52;5;;;2;;
15504;SDS011;7854;52.184;5.942;2023-06-05T14:15:06;3;;;2;;
15504;SDS011;7854;52.184;5.942;2023-06-05T14:17:20;2;;;2;;
15504;SDS011;7854;52.184;5.942;2023-06-05T14:19:35;2;;;2;;
15504;SDS011;7854;52.184;5.942;2023-06-05T14:21:49;3;;;2;;
15504;SDS011;7854;52.184;5.942;2023-06-05T14:24:04;3;;;2;;
15504;SDS011;7854;52.184;5.942;2023-06-05T14:26:18;1;;;1;;
15504;SDS011;7854;52.184;5.942;2023-06-05T14:28:33;6;;;2;;
15504;SDS011;7854;52.184;5.942;2023-06-05T14:30:47;1;;;1;;
15504;SDS011;7854;52.184;5.942;2023-06-05T14:33:03;2;;;2;;
15504;SDS011;7854;52.184;5.942;2023-06-05T14:35:16;4;;;2;;
15504;SDS011;7854;52.184;5.942;2023-06-05T14:37:30;1;;;1;;
15504;SDS011;7854;52.184;5.942;2023-06-05T14:39:45;3;;;2;;
15504;SDS011;7854;52.184;5.942;2023-06-05T14:41:59;2;;;1;;
15504;SDS011;7854;52.184;5.942;2023-06-05T14:44:14;2;;;2;;
15504;SDS011;7854;52.184;5.942;2023-06-05T14:46:28;1;;;1;;
15504;SDS011;7854;52.184;5.942;2023-06-05T14:48:42;2;;;2;;
15504;SDS011;7854;52.184;5.942;2023-06-05T14:50:57;2;;;1;;
15504;SDS011;7854;52.184;5.942;2023-06-05T14:53:11;2;;;2;;
15504;SDS011;7854;52.184;5.942;2023-06-05T14:55:26;2;;;2;;
15504;SDS011;7854;52.184;5.942;2023-06-05T14:57:40;14;;;2;;
15504;SDS011;7854;52.184;5.942;2023-06-05T14:59:54;2;;;1;;
15504;SDS011;7854;52.184;5.942;2023-06-05T15:02:07;2;;;2;;
15504;SDS011;7854;52.184;5.942;2023-06-05T15:04:22;1;;;1;;
15504;SDS011;7854;52.184;5.942;2023-06-05T15:08:50;4;;;1;;
15504;SDS011;7854;52.184;5.942;2023-06-05T15:11:05;1;;;1;;
15504;SDS011;7854;52.184;5.942;2023-06-05T15:13:20;1;;;1;;
15504;SDS011;7854;52.184;5.942;2023-06-05T15:15:34;2;;;1;;
15504;SDS011;7854;52.184;5.942;2023-06-05T15:17:48;5;;;1;;
15504;SDS011;7854;52.184;5.942;2023-06-05T15:20:03;2;;;1;;
15504;SDS011;7854;52.184;5.942;2023-06-05T15:22:17;2;;;2;;
15504;SDS011;7854;52.184;5.942;2023-06-05T15:24:32;1;;;1;;
15504;SDS011;7854;52.184;5.942;2023-06-05T15:26:46;1;;;1;;